Time;durP1;ratioP1;P1;durP2;ratioP2;P2;SDS_P1;SDS_P2;PMS_P1;PMS_P2;Temp;Humidity;BMP_temperature;BMP_pressure;BME280_temperature;BME280_humidity;BME280_pressure;Samples;Min_cycle;Max_cycle;Signal;HPM_P1;HPM_P2
2023/03/12 00:02:10;;;;;;;9.10;3.50;;;1.80;99.90;;;;;;5092871;28;20112;-48
2023/03/12 00:04:35;;;;;;;9.80;3.53;;;1.90;99.90;;;;;;5092626;28;20404;-48
2023/03/12 00:07:02;;;;;;;7.87;3.50;;;1.90;99.90;;;;;;5092450;28;20089;-53
2023/03/12 00:09:28;;;;;;;9.73;3.27;;;1.90;99.90;;;;;;5092735;28;20114;-51
2023/03/12 00:11:54;;;;;;;11.03;3.50;;;1.90;99.90;;;;;;5092773;28;20158;-48
2023/03/12 00:14:19;;;;;;;11.00;3.53;;;1.90;99.90;;;;;;5092424;28;20029;-50
2023/03/12 00:16:45;;;;;;;10.70;3.27;;;1.90;99.90;;;;;;5092302;28;20032;-46
2023/03/12 00:19:12;;;;;;;8.17;3.10;;;1.90;99.90;;;;;;5092463;28;20040;-49
2023/03/12 00:21:38;;;;;;;10.77;3.07;;;1.90;99.90;;;;;;5092350;28;20380;-49
2023/03/12 00:24:06;;;;;;;8.27;2.93;;;1.90;99.90;;;;;;5092281;28;20034;-49
2023/03/12 00:26:32;;;;;;;7.50;3.20;;;1.90;99.90;;;;;;5092275;28;20077;-49
2023/03/12 00:28:57;;;;;;;6.57;3.33;;;1.90;99.90;;;;;;5092385;28;20024;-47
2023/03/12 00:31:27;;;;;;;8.97;2.77;;;2.00;99.90;;;;;;5074085;28;20119;-47
2023/03/12 00:33:54;;;;;;;8.18;3.47;;;2.10;99.90;;;;;;5073868;28;20028;-50
2023/03/12 00:36:23;;;;;;;5.57;3.00;;;2.10;99.90;;;;;;5092053;28;20425;-49
2023/03/12 00:38:50;;;;;;;7.43;2.75;;;2.10;99.90;;;;;;5073914;28;20028;-48
2023/03/12 00:41:18;;;;;;;6.47;3.00;;;2.10;99.90;;;;;;5091919;28;20029;-50
2023/03/12 00:43:45;;;;;;;8.03;3.00;;;2.10;99.90;;;;;;5091907;28;20118;-49
2023/03/12 00:46:11;;;;;;;7.47;2.80;;;2.10;99.90;;;;;;5091789;28;20098;-48
2023/03/12 00:48:37;;;;;;;6.03;2.60;;;2.10;99.90;;;;;;5072986;28;20413;-52
2023/03/12 00:51:03;;;;;;;6.63;3.00;;;2.10;99.90;;;;;;5091829;28;20495;-50
2023/03/12 00:53:29;;;;;;;6.87;2.30;;;2.10;99.90;;;;;;5091638;28;20063;-51
2023/03/12 00:55:54;;;;;;;5.17;2.60;;;2.10;99.90;;;;;;5072753;28;20070;-47
2023/03/12 00:58:20;;;;;;;8.27;3.00;;;2.10;99.90;;;;;;5073328;28;20036;-47
2023/03/12 01:00:46;;;;;;;6.37;2.73;;;2.10;99.90;;;;;;5091533;28;20063;-49
2023/03/12 01:03:13;;;;;;;9.30;2.80;;;2.10;99.90;;;;;;5091608;28;20024;-51
2023/03/12 01:05:39;;;;;;;4.90;2.10;;;2.20;99.90;;;;;;5073211;28;20020;-46
2023/03/12 01:08:07;;;;;;;7.30;2.47;;;2.10;99.90;;;;;;5073131;28;20040;-48
2023/03/12 01:10:33;;;;;;;6.77;2.00;;;2.10;99.90;;;;;;5091514;28;20482;-51
2023/03/12 01:12:59;;;;;;;7.30;2.53;;;2.20;99.90;;;;;;5091560;28;20016;-51
2023/03/12 01:15:26;;;;;;;6.93;2.43;;;2.20;99.90;;;;;;5091077;28;20400;-50
2023/03/12 01:17:52;;;;;;;7.27;2.67;;;2.20;99.90;;;;;;5091464;28;20036;-52
2023/03/12 01:20:18;;;;;;;7.13;2.40;;;2.20;99.90;;;;;;5073090;28;20035;-49
2023/03/12 01:22:44;;;;;;;8.83;2.40;;;2.20;99.90;;;;;;5091252;28;20027;-47
2023/03/12 01:25:10;;;;;;;5.10;2.20;;;2.20;99.90;;;;;;5091098;28;20421;-51
2023/03/12 01:27:36;;;;;;;9.03;2.20;;;2.30;99.90;;;;;;5091079;28;20056;-52
2023/03/12 01:30:03;;;;;;;6.20;2.10;;;2.40;99.90;;;;;;5091142;28;20063;-49
2023/03/12 01:32:29;;;;;;;4.03;1.93;;;2.40;99.90;;;;;;5091231;28;20035;-49
2023/03/12 01:34:57;;;;;;;6.13;2.00;;;2.30;99.90;;;;;;5091003;28;20032;-47
2023/03/12 01:37:23;;;;;;;7.33;1.70;;;2.40;99.90;;;;;;5072679;28;20032;-51
2023/03/12 01:39:49;;;;;;;6.63;2.10;;;2.40;99.90;;;;;;5072729;28;20067;-47
2023/03/12 01:42:14;;;;;;;5.53;1.77;;;2.40;99.90;;;;;;5072799;28;20039;-50
2023/03/12 01:44:49;;;;;;;7.77;2.20;;;2.40;99.90;;;;;;5090663;28;20382;-47
2023/03/12 01:47:15;;;;;;;9.60;1.73;;;2.50;99.90;;;;;;5072573;28;20455;-52
2023/03/12 01:49:41;;;;;;;12.30;2.00;;;2.50;99.90;;;;;;5091135;28;20055;-50
2023/03/12 01:52:12;;;;;;;7.10;1.80;;;2.50;99.90;;;;;;5072744;28;20051;-50
2023/03/12 01:55:02;;;;;;;4.53;2.10;;;2.50;99.90;;;;;;5072561;28;20119;-51
2023/03/12 01:57:32;;;;;;;5.53;1.85;;;2.50;99.90;;;;;;5072391;28;20512;-48
2023/03/12 02:00:04;;;;;;;7.35;1.98;;;2.50;99.90;;;;;;5072705;28;20032;-49
2023/03/12 02:02:41;;;;;;;5.03;1.77;;;2.50;99.90;;;;;;5090718;28;20033;-47
2023/03/12 02:05:37;;;;;;;5.27;1.80;;;2.50;99.90;;;;;;5090492;28;20032;-49
2023/03/12 02:08:04;;;;;;;7.97;1.90;;;2.60;99.90;;;;;;5069237;28;20495;-45
2023/03/12 02:10:30;;;;;;;4.33;1.30;;;2.60;99.90;;;;;;5090625;28;20030;-50
2023/03/12 02:12:56;;;;;;;6.07;2.20;;;2.70;99.90;;;;;;5090680;28;20118;-51
2023/03/12 02:15:22;;;;;;;8.23;2.20;;;2.70;99.90;;;;;;5090340;28;20389;-46
2023/03/12 02:17:48;;;;;;;5.30;2.23;;;2.80;99.90;;;;;;5090401;28;20038;-49
2023/03/12 02:20:32;;;;;;;4.60;1.83;;;2.70;99.90;;;;;;5090410;28;20032;-51
2023/03/12 02:23:22;;;;;;;5.57;1.60;;;2.60;99.90;;;;;;5072237;28;20034;-50
2023/03/12 02:25:51;;;;;;;6.07;1.90;;;2.70;99.90;;;;;;5090553;28;20028;-49
2023/03/12 02:28:20;;;;;;;6.03;2.30;;;2.60;99.90;;;;;;5072104;28;20031;-47
2023/03/12 02:30:50;;;;;;;5.18;2.00;;;2.60;99.90;;;;;;5090555;28;20089;-48
2023/03/12 02:33:16;;;;;;;5.83;1.87;;;2.60;99.90;;;;;;5072630;28;20452;-48
2023/03/12 02:35:44;;;;;;;8.43;1.90;;;2.60;99.90;;;;;;5072018;28;20040;-48
2023/03/12 02:38:31;;;;;;;6.20;2.00;;;2.60;99.90;;;;;;5071974;28;20032;-49
2023/03/12 02:41:02;;;;;;;6.53;2.33;;;2.60;99.90;;;;;;5055437;28;20389;-51
2023/03/12 02:43:28;;;;;;;6.57;1.80;;;2.60;99.90;;;;;;5071941;28;20032;-47
2023/03/12 02:45:54;;;;;;;5.80;2.47;;;2.60;99.90;;;;;;5072133;28;20025;-48
2023/03/12 02:48:21;;;;;;;5.53;1.93;;;2.60;99.90;;;;;;5090176;28;20032;-46
2023/03/12 02:50:47;;;;;;;8.87;2.20;;;2.60;99.90;;;;;;5090250;28;20101;-49
2023/03/12 02:53:13;;;;;;;6.07;2.23;;;2.60;99.90;;;;;;5072116;28;20106;-51
2023/03/12 02:55:39;;;;;;;6.73;1.90;;;2.60;99.90;;;;;;5071557;28;20024;-53
2023/03/12 02:58:04;;;;;;;9.43;2.17;;;2.60;99.90;;;;;;5090063;28;20027;-48
2023/03/12 03:00:31;;;;;;;6.30;2.00;;;2.60;99.90;;;;;;5071891;28;20042;-49
2023/03/12 03:03:00;;;;;;;4.60;2.00;;;2.60;99.90;;;;;;5090251;28;20400;-49
2023/03/12 03:05:26;;;;;;;;;;;2.60;99.90;;;;;;5072174;28;20028;-48
2023/03/12 03:07:52;;;;;;;7.83;2.03;;;2.60;99.90;;;;;;5071690;28;19964;-49
2023/03/12 03:10:18;;;;;;;6.90;1.60;;;2.60;99.90;;;;;;5071937;28;20024;-49
2023/03/12 03:12:44;;;;;;;7.07;2.00;;;2.50;99.90;;;;;;5072122;28;20035;-45
2023/03/12 03:15:10;;;;;;;9.37;1.90;;;2.50;99.90;;;;;;5071714;28;20074;-46
2023/03/12 03:17:37;;;;;;;5.67;2.10;;;2.50;99.90;;;;;;5071634;28;20032;-51
2023/03/12 03:20:07;;;;;;;4.47;1.60;;;2.50;99.90;;;;;;5074081;28;20409;-50
2023/03/12 03:22:33;;;;;;;8.00;2.70;;;2.50;99.90;;;;;;5093471;28;20162;-49
2023/03/12 03:24:59;;;;;;;9.70;2.03;;;2.50;99.90;;;;;;5093439;28;20106;-47
2023/03/12 03:27:24;;;;;;;5.67;1.90;;;2.50;99.90;;;;;;5075012;28;20533;-51
2023/03/12 03:29:51;;;;;;;5.90;2.00;;;2.60;99.90;;;;;;5075353;28;20111;-47
2023/03/12 03:32:17;;;;;;;7.60;1.73;;;2.50;99.90;;;;;;5075441;28;20165;-46
2023/03/12 03:34:43;;;;;;;5.23;1.80;;;2.50;99.90;;;;;;5074254;28;20035;-48
2023/03/12 03:37:08;;;;;;;7.33;2.00;;;2.60;99.90;;;;;;5074233;28;20032;-48
2023/03/12 03:39:36;;;;;;;7.23;1.83;;;2.60;99.90;;;;;;5092957;28;20369;-51
2023/03/12 03:42:02;;;;;;;4.53;1.90;;;2.60;99.90;;;;;;5074380;28;20443;-51
2023/03/12 03:44:31;;;;;;;7.28;1.85;;;2.60;99.90;;;;;;5074568;28;20453;-52
2023/03/12 03:46:57;;;;;;;7.50;1.87;;;2.60;99.90;;;;;;5092969;28;20100;-48
2023/03/12 03:49:23;;;;;;;9.60;2.77;;;2.70;99.90;;;;;;5093056;28;20032;-46
2023/03/12 03:51:50;;;;;;;5.37;1.60;;;2.70;99.90;;;;;;5093409;28;20036;-45
2023/03/12 03:54:21;;;;;;;8.13;1.90;;;2.70;99.90;;;;;;5074678;28;20038;-48
2023/03/12 03:56:47;;;;;;;8.10;1.60;;;2.70;99.90;;;;;;5074515;28;20115;-48
2023/03/12 03:59:12;;;;;;;6.33;1.80;;;2.70;99.90;;;;;;5074870;28;20226;-50
2023/03/12 04:01:40;;;;;;;3.70;1.60;;;2.70;99.90;;;;;;5058253;28;20039;-48
2023/03/12 04:04:06;;;;;;;4.80;1.63;;;2.70;99.90;;;;;;5092644;28;20404;-51
2023/03/12 04:06:33;;;;;;;5.00;1.70;;;2.70;99.90;;;;;;5092426;28;20095;-50
2023/03/12 04:08:59;;;;;;;5.00;1.70;;;2.80;99.90;;;;;;5092735;28;20103;-51
2023/03/12 04:11:26;;;;;;;5.23;1.97;;;2.80;99.90;;;;;;5074580;28;20029;-50
2023/03/12 04:13:54;;;;;;;5.13;1.80;;;2.80;99.90;;;;;;5074284;28;20040;-51
2023/03/12 04:16:23;;;;;;;5.65;2.17;;;2.80;99.90;;;;;;5074205;28;20032;-53
2023/03/12 04:18:52;;;;;;;7.33;1.97;;;2.80;99.90;;;;;;5092437;28;20036;-53
2023/03/12 04:21:18;;;;;;;5.20;1.87;;;2.80;99.90;;;;;;5074212;28;20027;-52
2023/03/12 04:23:45;;;;;;;6.77;1.70;;;2.90;99.90;;;;;;5074132;28;20111;-47
2023/03/12 04:26:12;;;;;;;5.83;1.70;;;2.90;99.90;;;;;;5074266;28;20392;-50
2023/03/12 04:28:38;;;;;;;5.33;1.53;;;2.90;99.90;;;;;;5073975;28;20392;-48
2023/03/12 04:31:07;;;;;;;4.17;1.80;;;2.90;99.90;;;;;;5091200;28;20496;-54
2023/03/12 04:33:39;;;;;;;5.43;1.67;;;2.90;99.90;;;;;;5074022;28;20028;-53
2023/03/12 04:36:07;;;;;;;7.00;1.80;;;2.90;99.90;;;;;;5092277;28;20043;-52
2023/03/12 04:38:35;;;;;;;3.88;1.50;;;3.00;99.90;;;;;;5073756;28;20031;-48
2023/03/12 04:41:07;;;;;;;5.33;1.57;;;3.00;99.90;;;;;;5073841;28;20032;-51
2023/03/12 04:43:36;;;;;;;6.23;1.80;;;3.00;99.90;;;;;;5073651;28;20107;-51
2023/03/12 04:46:02;;;;;;;8.03;1.90;;;3.00;99.90;;;;;;5073716;28;20255;-49
2023/03/12 04:48:28;;;;;;;8.67;1.80;;;3.10;99.90;;;;;;5073611;28;20515;-50
2023/03/12 04:50:55;;;;;;;5.83;1.87;;;3.10;99.90;;;;;;5073784;28;20027;-52
2023/03/12 04:53:21;;;;;;;6.13;1.80;;;3.10;99.90;;;;;;5073689;28;20395;-51
2023/03/12 04:55:49;;;;;;;6.67;1.80;;;3.10;99.90;;;;;;5087693;22;20043;-50
2023/03/12 04:58:16;;;;;;;6.63;1.80;;;3.10;99.90;;;;;;5051809;28;20047;-51
2023/03/12 05:00:43;;;;;;;4.50;1.73;;;3.10;99.90;;;;;;5053535;28;20032;-50
2023/03/12 05:03:09;;;;;;;4.90;1.27;;;3.10;99.90;;;;;;5053483;28;20405;-54
2023/03/12 05:05:35;;;;;;;5.27;1.80;;;3.10;99.90;;;;;;5071126;28;20123;-51
2023/03/12 05:08:03;;;;;;;9.47;2.20;;;3.10;99.90;;;;;;5033483;28;20064;-53
2023/03/12 05:10:31;;;;;;;3.63;1.50;;;3.10;99.90;;;;;;5033337;28;20056;-52
2023/03/12 05:12:57;;;;;;;5.33;1.90;;;3.10;99.90;;;;;;5033272;28;20025;-48
2023/03/12 05:15:24;;;;;;;6.77;1.83;;;3.10;99.90;;;;;;5033129;28;20123;-48
2023/03/12 05:17:49;;;;;;;4.90;1.63;;;3.10;99.90;;;;;;5032970;28;20100;-53
2023/03/12 05:20:16;;;;;;;4.73;1.70;;;3.10;99.90;;;;;;5033320;28;20029;-51
2023/03/12 05:22:43;;;;;;;5.23;1.70;;;3.10;99.90;;;;;;5033127;28;20489;-51
2023/03/12 05:25:10;;;;;;;10.37;2.23;;;3.10;99.90;;;;;;5050902;28;20021;-52
2023/03/12 05:27:36;;;;;;;8.50;2.10;;;3.10;99.90;;;;;;5032905;28;20083;-50
2023/03/12 05:30:04;;;;;;;5.20;1.60;;;3.10;99.90;;;;;;5050990;28;20032;-50
2023/03/12 05:32:30;;;;;;;5.33;1.80;;;3.10;99.90;;;;;;5032999;28;20540;-50
2023/03/12 05:34:57;;;;;;;6.17;1.70;;;3.10;99.90;;;;;;5032836;28;20033;-51
2023/03/12 05:37:23;;;;;;;8.10;1.63;;;3.10;99.90;;;;;;5032823;28;20024;-51
2023/03/12 05:39:49;;;;;;;8.63;2.07;;;3.10;99.90;;;;;;5050696;28;20056;-51
2023/03/12 05:42:16;;;;;;;6.70;1.87;;;3.10;99.90;;;;;;5032552;28;20123;-49
2023/03/12 05:44:42;;;;;;;5.90;1.80;;;3.10;99.90;;;;;;5050872;28;20025;-48
2023/03/12 05:47:12;;;;;;;5.20;1.85;;;3.10;99.90;;;;;;5032595;28;20106;-52
2023/03/12 05:49:39;;;;;;;8.83;3.73;;;3.10;99.90;;;;;;5032727;28;20025;-51
2023/03/12 05:52:05;;;;;;;12.10;3.00;;;3.10;99.90;;;;;;5032797;28;20065;-49
2023/03/12 05:54:31;;;;;;;9.80;2.30;;;3.10;99.90;;;;;;5032425;28;20102;-49
2023/03/12 05:56:57;;;;;;;4.27;1.50;;;3.10;99.90;;;;;;5050201;28;20035;-53
2023/03/12 05:59:25;;;;;;;4.80;1.80;;;3.10;99.90;;;;;;5032675;28;20043;-50
2023/03/12 06:01:52;;;;;;;5.77;1.70;;;3.00;99.90;;;;;;5032618;28;20115;-52
2023/03/12 06:04:18;;;;;;;6.07;1.97;;;3.00;99.90;;;;;;5032453;28;20533;-51
2023/03/12 06:06:44;;;;;;;6.40;2.30;;;3.00;99.90;;;;;;5032534;28;20112;-53
2023/03/12 06:09:10;;;;;;;6.40;2.00;;;2.90;99.90;;;;;;5032423;28;20393;-50
2023/03/12 06:11:36;;;;;;;5.47;2.37;;;2.90;99.90;;;;;;5050317;28;20029;-50
2023/03/12 06:14:02;;;;;;;5.33;2.00;;;2.90;99.90;;;;;;5050166;28;20033;-49
2023/03/12 06:16:29;;;;;;;8.07;2.47;;;2.90;99.90;;;;;;5032196;28;20032;-50
2023/03/12 06:18:57;;;;;;;8.97;2.43;;;2.90;99.90;;;;;;5032365;28;20029;-51
2023/03/12 06:21:25;;;;;;;6.23;2.30;;;2.90;99.90;;;;;;5050243;28;20482;-53
2023/03/12 06:23:52;;;;;;;6.85;2.08;;;3.00;99.90;;;;;;5032472;28;20025;-53
2023/03/12 06:26:22;;;;;;;7.67;2.40;;;3.00;99.90;;;;;;5032167;28;20041;-50
2023/03/12 06:28:49;;;;;;;6.50;2.40;;;2.90;99.90;;;;;;5050098;28;20072;-52
2023/03/12 06:31:16;;;;;;;9.47;2.40;;;2.90;99.90;;;;;;5050299;28;20507;-53
2023/03/12 06:33:42;;;;;;;7.43;2.90;;;3.00;99.90;;;;;;5050023;28;20025;-49
2023/03/12 06:36:09;;;;;;;8.33;2.27;;;3.00;99.90;;;;;;5050000;28;20109;-53
2023/03/12 06:38:35;;;;;;;7.43;2.77;;;3.00;99.90;;;;;;5049993;28;20025;-50
2023/03/12 06:41:05;;;;;;;6.40;2.93;;;3.00;99.90;;;;;;5050251;28;20116;-52
2023/03/12 06:43:32;;;;;;;5.45;2.28;;;3.10;99.90;;;;;;5049921;28;20094;-49
2023/03/12 06:45:59;;;;;;;6.63;2.40;;;3.10;99.90;;;;;;5049974;28;20119;-52
2023/03/12 06:48:26;;;;;;;7.77;2.10;;;3.10;99.90;;;;;;5049895;28;20485;-52
2023/03/12 06:50:52;;;;;;;8.30;2.30;;;3.00;99.90;;;;;;5049983;28;20076;-53
2023/03/12 06:53:19;;;;;;;6.37;1.87;;;3.00;99.90;;;;;;5050125;28;20119;-49
2023/03/12 06:55:45;;;;;;;12.17;2.90;;;2.90;99.90;;;;;;5053580;28;20032;-50
2023/03/12 06:58:11;;;;;;;7.83;2.67;;;2.80;99.90;;;;;;5053471;28;20029;-48
2023/03/12 07:00:37;;;;;;;7.43;2.93;;;2.80;99.90;;;;;;5053704;28;20029;-48
2023/03/12 07:03:03;;;;;;;7.80;2.87;;;2.80;99.90;;;;;;5053557;28;20025;-48
2023/03/12 07:05:29;;;;;;;11.60;2.60;;;2.80;99.90;;;;;;5053517;28;20473;-49
2023/03/12 07:07:55;;;;;;;9.13;2.90;;;2.80;99.90;;;;;;5053585;28;20057;-48
2023/03/12 07:10:20;;;;;;;9.47;3.13;;;2.80;99.90;;;;;;5053654;28;20393;-52
2023/03/12 07:12:46;;;;;;;9.83;2.90;;;2.80;99.90;;;;;;5053636;28;20033;-50
2023/03/12 07:15:12;;;;;;;9.20;3.10;;;2.80;99.90;;;;;;5053349;28;20581;-48
2023/03/12 07:17:38;;;;;;;25.47;11.97;;;2.80;99.90;;;;;;5053108;28;20428;-53
2023/03/12 07:20:04;;;;;;;6.83;2.80;;;2.90;99.90;;;;;;5053414;28;20477;-52
2023/03/12 07:22:30;;;;;;;6.83;2.97;;;2.90;99.90;;;;;;5053418;28;20316;-52
2023/03/12 07:24:56;;;;;;;10.10;2.50;;;2.90;99.90;;;;;;5053201;28;20033;-52
2023/03/12 07:27:22;;;;;;;7.40;2.87;;;3.00;99.90;;;;;;5053068;28;20061;-51
2023/03/12 07:29:48;;;;;;;7.27;2.57;;;2.90;99.90;;;;;;5053226;28;20112;-52
2023/03/12 07:32:14;;;;;;;9.03;3.00;;;2.90;99.90;;;;;;5053279;28;20037;-53
2023/03/12 07:34:40;;;;;;;5.03;2.43;;;2.90;99.90;;;;;;5052960;28;20033;-50
2023/03/12 07:37:05;;;;;;;5.30;2.17;;;3.00;99.90;;;;;;5053008;28;20033;-52
2023/03/12 07:39:31;;;;;;;7.60;3.00;;;3.00;99.90;;;;;;5053191;28;20029;-51
2023/03/12 07:41:57;;;;;;;5.93;2.47;;;3.00;99.90;;;;;;5053055;28;20025;-53
2023/03/12 07:44:25;;;;;;;6.77;2.60;;;3.00;99.90;;;;;;5034868;28;20025;-48
2023/03/12 07:46:51;;;;;;;9.93;2.90;;;3.00;99.90;;;;;;5052653;28;20036;-49
2023/03/12 07:49:18;;;;;;;6.60;2.50;;;3.00;99.90;;;;;;5052833;28;20067;-50
2023/03/12 07:51:44;;;;;;;11.83;2.90;;;3.10;99.90;;;;;;5052866;28;20504;-50
2023/03/12 07:54:10;;;;;;;9.07;3.00;;;3.10;99.90;;;;;;5034548;28;20036;-51
2023/03/12 07:56:35;;;;;;;6.43;2.77;;;3.10;99.90;;;;;;5052288;28;20041;-54
2023/03/12 07:59:01;;;;;;;8.03;2.43;;;3.10;99.90;;;;;;5052712;28;20102;-55
2023/03/12 08:01:30;;;;;;;13.33;2.80;;;3.20;99.90;;;;;;5052505;28;20056;-50
2023/03/12 08:04:00;;;;;;;7.13;2.60;;;3.30;99.90;;;;;;5052534;28;20120;-48
2023/03/12 08:06:26;;;;;;;;;;;3.30;99.90;;;;;;5052682;28;20036;-52
2023/03/12 08:08:52;;;;;;;5.17;2.60;;;3.20;99.90;;;;;;5052583;28;19936;-50
2023/03/12 08:11:18;;;;;;;8.27;3.37;;;3.30;99.90;;;;;;5034599;28;20068;-51
2023/03/12 08:13:44;;;;;;;6.33;3.00;;;3.30;99.90;;;;;;5052320;28;20147;-54
2023/03/12 08:16:10;;;;;;;8.20;2.83;;;3.30;99.90;;;;;;5052110;28;20512;-52
2023/03/12 08:18:36;;;;;;;6.10;2.50;;;3.40;99.90;;;;;;5052183;28;20031;-52
2023/03/12 08:21:02;;;;;;;9.10;2.90;;;3.40;99.90;;;;;;5052373;28;20029;-52
2023/03/12 08:23:27;;;;;;;6.73;2.60;;;3.50;99.90;;;;;;5052202;28;20029;-50
2023/03/12 08:25:53;;;;;;;8.03;2.80;;;3.50;99.90;;;;;;5052131;28;20095;-49
2023/03/12 08:28:21;;;;;;;7.33;2.70;;;3.60;99.90;;;;;;5051960;28;20025;-51
2023/03/12 08:30:52;;;;;;;22.33;9.27;;;3.70;99.90;;;;;;5052082;28;20028;-50
2023/03/12 08:33:18;;;;;;;7.90;3.60;;;3.80;99.90;;;;;;5052275;28;20021;-50
2023/03/12 08:35:44;;;;;;;6.77;3.20;;;3.90;99.90;;;;;;5052099;28;20436;-53
2023/03/12 08:38:10;;;;;;;9.70;2.70;;;4.00;99.90;;;;;;5051813;28;20028;-54
2023/03/12 08:40:36;;;;;;;8.40;3.47;;;4.10;99.90;;;;;;5051942;28;20033;-54
2023/03/12 08:43:02;;;;;;;7.87;2.87;;;4.10;99.90;;;;;;5051674;28;20090;-55
2023/03/12 08:45:28;;;;;;;9.40;3.53;;;4.10;99.90;;;;;;5051640;28;20103;-53
2023/03/12 08:47:54;;;;;;;11.93;3.70;;;4.00;99.90;;;;;;5051567;28;20605;-48
2023/03/12 08:50:21;;;;;;;8.20;3.70;;;3.90;99.90;;;;;;5033869;28;20021;-54
2023/03/12 08:52:47;;;;;;;10.07;3.30;;;3.90;99.90;;;;;;5051607;28;20444;-52
2023/03/12 08:55:13;;;;;;;7.60;2.70;;;3.80;99.90;;;;;;5051425;28;20055;-51
2023/03/12 08:57:39;;;;;;;9.47;3.53;;;3.80;99.90;;;;;;5051271;28;20132;-54
2023/03/12 09:00:10;;;;;;;10.47;3.63;;;3.70;99.90;;;;;;5051472;28;20040;-53
2023/03/12 09:02:36;;;;;;;9.80;4.10;;;3.80;99.90;;;;;;5051492;28;20029;-51
2023/03/12 09:05:03;;;;;;;11.60;4.07;;;3.80;99.90;;;;;;5051575;28;20158;-49
2023/03/12 09:07:32;;;;;;;7.77;3.73;;;3.80;99.90;;;;;;5051055;28;20040;-53
2023/03/12 09:09:58;;;;;;;12.80;4.38;;;3.80;99.90;;;;;;5051202;28;20025;-50
2023/03/12 09:12:24;;;;;;;7.83;4.50;;;3.80;99.90;;;;;;5051529;28;20044;-49
2023/03/12 09:14:51;;;;;;;10.80;4.47;;;3.80;99.90;;;;;;5051345;28;20057;-51
2023/03/12 09:17:17;;;;;;;16.50;7.97;;;3.80;99.90;;;;;;5050210;28;20039;-48
2023/03/12 09:19:42;;;;;;;8.53;3.90;;;3.80;99.90;;;;;;5051082;28;20525;-53
2023/03/12 09:22:08;;;;;;;8.77;4.57;;;3.80;99.90;;;;;;5051016;28;20120;-52
2023/03/12 09:24:34;;;;;;;10.43;4.70;;;3.80;99.90;;;;;;5050845;28;20025;-53
2023/03/12 09:27:00;;;;;;;10.20;4.80;;;3.80;99.90;;;;;;5050691;28;20357;-53
2023/03/12 09:29:26;;;;;;;9.23;4.63;;;3.90;99.90;;;;;;5051035;28;20025;-55
2023/03/12 09:31:52;;;;;;;10.50;5.33;;;3.80;99.90;;;;;;5050882;28;20396;-50
2023/03/12 09:34:18;;;;;;;10.27;5.33;;;3.90;99.90;;;;;;5050761;28;20025;-48
2023/03/12 09:36:44;;;;;;;11.60;5.97;;;3.90;99.90;;;;;;5050662;28;20589;-51
2023/03/12 09:39:09;;;;;;;11.43;5.57;;;3.80;99.90;;;;;;5050807;28;20075;-52
2023/03/12 09:41:38;;;;;;;12.67;5.90;;;3.80;99.90;;;;;;5050599;28;20124;-50
2023/03/12 09:44:22;;;;;;;8.95;5.07;;;3.80;99.90;;;;;;5050546;28;20269;-49
2023/03/12 09:46:51;;;;;;;13.93;6.27;;;3.80;99.90;;;;;;5050420;28;20033;-52
2023/03/12 09:49:42;;;;;;;15.57;6.67;;;3.80;99.90;;;;;;5050675;28;20029;-54
2023/03/12 09:52:23;;;;;;;11.27;6.13;;;3.70;99.90;;;;;;5050593;28;20083;-54
2023/03/12 09:55:13;;;;;;;12.23;6.53;;;3.80;99.90;;;;;;5050496;28;20037;-50
2023/03/12 09:57:39;;;;;;;12.00;7.80;;;3.70;99.90;;;;;;5050182;28;20040;-52
2023/03/12 10:00:12;;;;;;;13.70;7.43;;;3.80;99.90;;;;;;5050501;28;20036;-52
2023/03/12 10:02:56;;;;;;;16.80;8.50;;;3.80;99.90;;;;;;5050487;28;20033;-50
2023/03/12 10:05:39;;;;;;;15.27;8.30;;;3.90;99.90;;;;;;5050294;28;20024;-51
2023/03/12 10:08:18;;;;;;;13.97;7.40;;;3.90;99.90;;;;;;5050247;28;20037;-50
2023/03/12 10:10:44;;;;;;;12.45;7.80;;;4.00;99.90;;;;;;5050303;28;20032;-52
2023/03/12 10:13:28;;;;;;;12.13;7.73;;;4.10;99.90;;;;;;5050415;28;20032;-53
2023/03/12 10:16:25;;;;;;;12.20;8.03;;;4.10;99.90;;;;;;5050646;28;20047;-51
2023/03/12 10:19:22;;;;;;;11.53;7.00;;;4.20;99.90;;;;;;5050328;28;20025;-53
2023/03/12 10:22:27;;;;;;;15.40;8.57;;;4.30;99.90;;;;;;5028793;28;20080;-51
2023/03/12 10:24:53;;;;;;;19.33;9.10;;;4.30;99.90;;;;;;5050137;28;20037;-52
2023/03/12 10:27:22;;;;;;;14.77;9.27;;;4.30;99.90;;;;;;5049926;28;20065;-54
2023/03/12 10:29:51;;;;;;;14.77;9.07;;;4.30;99.90;;;;;;5052482;28;20035;-51
2023/03/12 10:32:26;;;;;;;14.70;9.60;;;4.30;99.90;;;;;;5054386;28;20063;-50
2023/03/12 10:34:55;;;;;;;16.23;9.80;;;4.40;99.90;;;;;;5054104;28;20033;-53
2023/03/12 10:37:30;;;;;;;15.60;10.88;;;4.40;99.90;;;;;;5054068;28;20039;-50
2023/03/12 10:39:59;;;;;;;16.80;10.50;;;4.40;99.90;;;;;;5054052;28;20079;-52
2023/03/12 10:42:28;;;;;;;17.10;10.13;;;4.40;99.90;;;;;;5054134;28;20052;-51
2023/03/12 10:45:03;;;;;;;16.30;10.60;;;4.50;99.90;;;;;;5053808;28;20036;-52
2023/03/12 10:47:40;;;;;;;14.70;9.20;;;4.60;99.90;;;;;;5053840;28;20047;-51
2023/03/12 10:50:12;;;;;;;14.97;9.90;;;4.70;99.90;;;;;;5053926;28;20025;-54
2023/03/12 10:52:38;;;;;;;14.93;10.87;;;4.80;99.90;;;;;;5054049;28;20040;-53
2023/03/12 10:55:15;;;;;;;17.80;10.40;;;4.90;99.90;;;;;;5053726;28;20033;-51
2023/03/12 10:57:41;;;;;;;16.07;11.17;;;5.00;99.90;;;;;;5053671;28;20098;-56
2023/03/12 11:00:11;;;;;;;16.53;11.30;;;5.10;99.90;;;;;;5053800;28;20481;-52
2023/03/12 11:02:42;;;;;;;19.87;12.10;;;5.10;99.90;;;;;;5053784;28;20394;-54
2023/03/12 11:05:23;;;;;;;16.97;10.37;;;5.20;99.90;;;;;;5053599;28;20108;-52
2023/03/12 11:07:50;;;;;;;16.30;10.30;;;5.30;99.90;;;;;;5053358;28;20036;-53
2023/03/12 11:10:43;;;;;;;18.50;11.20;;;5.40;99.90;;;;;;5053596;28;20033;-54
2023/03/12 11:13:26;;;;;;;16.43;10.37;;;5.40;99.90;;;;;;5052908;28;20140;-53
2023/03/12 11:15:53;;;;;;;15.23;9.90;;;5.40;99.90;;;;;;5035642;28;20032;-51
2023/03/12 11:18:21;;;;;;;15.90;10.43;;;5.50;99.90;;;;;;5053339;28;20058;-51
2023/03/12 11:20:52;;;;;;;16.13;9.73;;;5.60;99.90;;;;;;5035879;28;20110;-50
2023/03/12 11:23:29;;;;;;;15.20;10.27;;;5.70;99.90;;;;;;5053231;28;20069;-53
2023/03/12 11:25:59;;;;;;;14.53;9.57;;;5.70;99.90;;;;;;5053230;28;20037;-52
2023/03/12 11:28:35;;;;;;;12.60;9.37;;;5.80;99.90;;;;;;5053274;28;20166;-49
2023/03/12 11:31:02;;;;;;;14.67;9.93;;;5.90;99.90;;;;;;5053375;28;20112;-51
2023/03/12 11:33:27;;;;;;;15.80;10.07;;;6.00;99.90;;;;;;5053082;28;20028;-55
2023/03/12 11:36:18;;;;;;;16.07;9.97;;;6.00;99.90;;;;;;5053263;28;20092;-50
2023/03/12 11:39:09;;;;;;;15.10;9.90;;;6.10;99.90;;;;;;5053000;28;20021;-54
2023/03/12 11:42:00;;;;;;;15.13;9.97;;;6.20;99.90;;;;;;5052646;28;20036;-51
2023/03/12 11:44:37;;;;;;;13.77;9.37;;;6.20;99.90;;;;;;5052779;28;20033;-52
2023/03/12 11:47:34;;;;;;;13.07;9.53;;;6.40;99.90;;;;;;5052992;28;20064;-51
2023/03/12 11:50:28;;;;;;;12.87;9.03;;;6.50;99.90;;;;;;5010078;28;20041;-52
2023/03/12 11:53:14;;;;;;;16.60;10.23;;;6.60;99.90;;;;;;5052762;28;20029;-53
2023/03/12 11:55:49;;;;;;;13.33;9.77;;;6.70;99.90;;;;;;5052528;28;20082;-52
2023/03/12 11:58:51;;;;;;;16.47;9.63;;;6.80;99.90;;;;;;5052857;28;20111;-49
2023/03/12 12:01:41;;;;;;;12.93;9.70;;;6.90;99.90;;;;;;5052664;28;20029;-51
2023/03/12 12:04:25;;;;;;;15.67;11.07;;;7.00;99.90;;;;;;5052405;28;20032;-53
2023/03/12 12:07:32;;;;;;;15.53;10.57;;;7.00;99.90;;;;;;5052452;28;20029;-48
2023/03/12 12:10:01;;;;;;;16.33;10.63;;;7.00;99.90;;;;;;5034589;28;20028;-50
2023/03/12 12:12:45;;;;;;;16.00;10.47;;;7.00;99.90;;;;;;5052505;28;20057;-53
2023/03/12 12:15:49;;;;;;;19.33;11.33;;;7.00;99.90;;;;;;5052743;28;20492;-54
2023/03/12 12:18:42;;;;;;;17.83;11.70;;;7.10;99.90;;;;;;5049394;28;20040;-51
2023/03/12 12:21:43;;;;;;;19.97;12.13;;;7.20;99.90;;;;;;5052344;28;20037;-49
2023/03/12 12:24:37;;;;;;;17.57;11.67;;;7.20;99.90;;;;;;5051984;28;20393;-52
2023/03/12 12:27:23;;;;;;;20.17;12.93;;;7.20;99.90;;;;;;5052031;28;20497;-49
2023/03/12 12:30:10;;;;;;;21.60;13.07;;;7.30;99.90;;;;;;5052620;28;20112;-55
2023/03/12 12:32:59;;;;;;;22.33;14.13;;;7.40;99.90;;;;;;5052296;28;20115;-51
2023/03/12 12:35:32;;;;;;;24.95;13.95;;;7.40;99.90;;;;;;5051983;28;20482;-53
2023/03/12 12:38:29;;;;;;;20.67;13.67;;;7.50;99.90;;;;;;5051816;28;20473;-50
2023/03/12 12:41:08;;;;;;;26.57;14.37;;;7.50;99.90;;;;;;5051947;28;20043;-54
2023/03/12 12:43:46;;;;;;;;;;;7.60;99.90;;;;;;5052591;28;20033;-56
2023/03/12 12:46:24;;;;;;;22.67;13.87;;;7.70;99.90;;;;;;5051924;28;19983;-55
2023/03/12 12:49:02;;;;;;;20.00;13.27;;;7.90;99.90;;;;;;5051901;28;20025;-49
2023/03/12 12:51:33;;;;;;;23.58;14.63;;;7.90;99.90;;;;;;5051149;28;20124;-51
2023/03/12 12:54:06;;;;;;;27.77;15.23;;;8.00;99.90;;;;;;5051932;28;20052;-52
2023/03/12 12:56:41;;;;;;;30.63;14.73;;;8.30;99.90;;;;;;5051361;28;20060;-52
2023/03/12 12:59:41;;;;;;;22.30;13.57;;;8.50;99.90;;;;;;5052109;28;20037;-54
2023/03/12 13:02:16;;;;;;;27.83;13.23;;;8.70;99.90;;;;;;5051689;28;20401;-53
2023/03/12 13:04:43;;;;;;;24.30;13.90;;;8.90;99.90;;;;;;5051823;28;20058;-54
2023/03/12 13:07:11;;;;;;;27.40;12.73;;;9.10;99.90;;;;;;5051371;28;20033;-53
2023/03/12 13:09:42;;;;;;;25.17;12.47;;;9.30;99.90;;;;;;5051447;28;20075;-54